Bucks, Alabama
Current Conditions -  °F | °C
As of 4:56 PM on Saturday 20 Dec 2014 (Local Time) from KMOB Reporting Station
Overcast Overcast  
Wind Chill: 45°   Ceiling: 800
Heat Index: 49°   Visibility: 10mi
Dew Point: 47°   Wind: 10mph
Humidity: 93%   Direction: 10°N
Pressure: 30.12"   Gusts: NA
Location:  31.01°N, 88.02°W
Report Text: KMOB 202256Z 01009KT 10SM OVC008 09/08 A3012 RMK AO2 SLP200 T00940083 $
Loading
Personal Weather Stations






























Interactive Weather Map New forecast layout! Learn more

10-Day Weather Forecast

Advertisements
Track Severe Weather on mobile